Time;durP1;ratioP1;P1;durP2;ratioP2;P2;SDS_P1;SDS_P2;PMS_P1;PMS_P2;Temp;Humidity;BMP_temperature;BMP_pressure;BME280_temperature;BME280_humidity;BME280_pressure;Samples;Min_cycle;Max_cycle;Signal;HPM_P1;HPM_P2
2022/01/17 00:01:16;;;;;;;17.38;7.95;;;;;;;6.86;63.39;102594.72;5028778;28;20124;-79
2022/01/17 00:03:43;;;;;;;14.93;7.10;;;;;;;6.89;64.37;102591.31;5026466;28;20041;-79
2022/01/17 00:06:09;;;;;;;14.88;7.20;;;;;;;7.01;63.82;102587.31;5028289;28;20061;-79
2022/01/17 00:08:40;;;;;;;16.20;8.02;;;;;;;6.90;64.77;102590.50;5024534;28;20037;-79
2022/01/17 00:11:06;;;;;;;17.42;7.70;;;;;;;7.05;63.24;102594.28;5057703;28;20132;-79
2022/01/17 00:13:31;;;;;;;15.32;6.72;;;;;;;6.87;64.18;102596.44;5025657;28;20120;-79
2022/01/17 00:16:22;;;;;;;15.35;7.05;;;;;;;6.88;64.87;102600.78;5026983;28;20120;-79
2022/01/17 00:21:13;;;;;;;12.48;6.93;;;;;;;6.92;64.37;102586.22;5023198;28;20095;-80
2022/01/17 00:23:38;;;;;;;15.52;7.55;;;;;;;6.85;64.71;102579.16;5024290;28;20650;-79
2022/01/17 00:26:04;;;;;;;13.70;7.00;;;;;;;6.69;64.56;102579.66;5027054;28;20108;-79
2022/01/17 00:28:30;;;;;;;19.55;7.05;;;;;;;6.93;64.23;102582.81;5028729;28;20034;-79
2022/01/17 00:30:56;;;;;;;15.20;7.55;;;;;;;6.88;64.46;102581.81;5026233;28;20056;-79
2022/01/17 00:33:22;;;;;;;16.13;7.90;;;;;;;6.72;64.64;102583.19;5025091;28;20049;-79
2022/01/17 00:35:47;;;;;;;15.07;6.85;;;;;;;6.92;64.16;102588.81;5020594;28;20506;-80
2022/01/17 00:38:13;;;;;;;14.55;6.57;;;;;;;6.84;63.66;102593.78;5028661;28;20025;-79
2022/01/17 00:40:41;;;;;;;17.75;6.80;;;;;;;6.86;64.03;102596.41;5026545;28;20596;-79
2022/01/17 00:43:07;;;;;;;18.33;7.57;;;;;;;6.46;66.56;102607.44;5022100;28;20506;-79
2022/01/17 00:45:35;;;;;;;13.02;6.47;;;;;;;6.88;65.37;102603.34;5027450;28;20037;-79
2022/01/17 00:48:01;;;;;;;14.90;7.05;;;;;;;6.80;66.31;102611.78;5028050;28;20058;-79
2022/01/17 00:50:28;;;;;;;15.98;7.28;;;;;;;6.87;64.82;102611.94;5026851;28;20038;-79
2022/01/17 00:52:54;;;;;;;14.60;6.30;;;;;;;6.71;66.06;102624.47;5026761;28;20108;-79
2022/01/17 00:55:20;;;;;;;14.63;6.85;;;;;;;6.99;64.89;102630.31;5028852;28;20175;-79
2022/01/17 00:57:45;;;;;;;14.13;7.30;;;;;;;6.85;65.32;102630.81;5024978;28;20490;-79
2022/01/17 01:00:12;;;;;;;14.00;7.32;;;;;;;6.88;64.47;102641.22;5027825;28;20034;-79
2022/01/17 01:02:38;;;;;;;14.95;6.63;;;;;;;6.61;66.06;102650.88;5024155;28;20104;-79
2022/01/17 01:05:05;;;;;;;16.20;6.75;;;;;;;6.64;66.62;102657.00;5026042;28;20061;-79
2022/01/17 01:07:31;;;;;;;16.83;7.35;;;;;;;6.65;66.90;102657.88;5022097;28;20041;-79
2022/01/17 01:10:06;;;;;;;14.32;6.75;;;;;;;6.37;68.15;102651.97;5038873;28;20673;-79
2022/01/17 01:12:33;;;;;;;15.52;7.38;;;;;;;6.59;70.22;102640.53;5026311;28;20477;-79
2022/01/17 01:14:58;;;;;;;13.13;6.57;;;;;;;6.31;71.63;102649.22;5026710;28;20114;-79
2022/01/17 01:17:34;;;;;;;14.57;6.50;;;;;;;6.67;71.03;102641.59;5028184;28;20545;-79
2022/01/17 01:20:13;;;;;;;15.02;7.10;;;;;;;6.70;70.03;102633.03;5030343;28;20026;-79
2022/01/17 01:28:12;;;;;;;16.33;7.38;;;;;;;6.57;68.98;102642.22;5026238;28;20065;-79
2022/01/17 01:30:41;;;;;;;19.40;7.38;;;;;;;6.62;70.31;102653.53;5026406;28;20072;-79
2022/01/17 01:33:07;;;;;;;18.58;7.78;;;;;;;6.79;69.19;102654.81;5028193;28;20784;-79
2022/01/17 01:35:34;;;;;;;14.95;7.57;;;;;;;6.52;69.31;102652.41;5025960;28;20025;-79
2022/01/17 01:38:00;;;;;;;15.13;6.93;;;;;;;6.52;68.78;102669.59;5024748;28;20021;-79
2022/01/17 01:40:27;;;;;;;20.85;8.85;;;;;;;6.60;68.97;102669.81;5026653;28;20061;-79
2022/01/17 01:42:52;;;;;;;22.13;9.32;;;;;;;6.37;69.02;102671.75;5029097;28;20044;-79
2022/01/17 01:45:20;;;;;;;20.35;8.52;;;;;;;6.45;71.52;102685.75;5026319;28;20037;-79
2022/01/17 01:47:46;;;;;;;19.55;8.70;;;;;;;6.51;70.55;102678.19;5057394;28;20623;-79
2022/01/17 01:50:12;;;;;;;18.13;7.85;;;;;;;6.46;70.50;102672.88;5027767;28;20696;-79
2022/01/17 01:52:41;;;;;;;20.48;9.13;;;;;;;6.75;69.82;102665.88;5025551;28;20402;-79
2022/01/17 01:55:10;;;;;;;19.52;8.43;;;;;;;6.62;69.80;102662.97;5025239;28;20037;-79
2022/01/17 01:57:35;;;;;;;16.88;7.85;;;;;;;6.53;70.20;102650.69;5028041;28;20045;-79
2022/01/17 02:00:01;;;;;;;17.88;8.25;;;;;;;6.72;68.57;102639.13;5027217;28;20037;-79
2022/01/17 02:02:26;;;;;;;18.98;8.52;;;;;;;6.74;69.57;102628.00;5027091;28;20045;-79
2022/01/17 02:04:52;;;;;;;18.77;8.18;;;;;;;6.55;70.16;102626.66;5029141;28;20037;-79
2022/01/17 02:07:19;;;;;;;19.65;8.80;;;;;;;6.61;68.97;102638.84;5025840;28;21701;-79
2022/01/17 02:09:46;;;;;;;18.10;9.23;;;;;;;6.72;68.81;102644.31;5027582;28;20033;-79
2022/01/17 02:12:13;;;;;;;17.75;7.85;;;;;;;6.82;68.58;102652.28;5027729;28;20037;-79
2022/01/17 02:14:38;;;;;;;20.63;9.15;;;;;;;6.36;69.67;102645.09;5027701;28;20514;-79
2022/01/17 02:17:04;;;;;;;16.73;6.97;;;;;;;6.76;68.69;102646.97;5030145;28;20129;-79
2022/01/17 02:19:31;;;;;;;17.02;7.97;;;;;;;6.65;68.71;102658.75;5031985;28;20037;-79
2022/01/17 02:21:56;;;;;;;20.88;9.35;;;;;;;6.46;68.15;102670.28;5032073;28;20042;-79
2022/01/17 02:24:22;;;;;;;20.90;8.02;;;;;;;6.37;68.72;102682.06;5030417;28;20041;-79
2022/01/17 02:26:51;;;;;;;18.58;8.50;;;;;;;6.75;67.79;102665.88;5031352;28;20056;-78
2022/01/17 02:29:17;;;;;;;21.33;8.73;;;;;;;6.75;68.09;102655.56;5032107;28;20036;-78
2022/01/17 02:31:44;;;;;;;20.70;8.40;;;;;;;6.75;68.04;102645.22;5025138;28;20398;-79
2022/01/17 02:34:11;;;;;;;19.25;8.52;;;;;;;6.84;67.45;102644.59;5031921;28;20055;-78
2022/01/17 02:36:36;;;;;;;16.95;8.43;;;;;;;6.63;68.55;102650.13;5026138;28;20034;-78
2022/01/17 02:39:03;;;;;;;26.38;9.32;;;;;;;6.68;68.19;102639.88;5027819;28;20525;-78
2022/01/17 02:41:34;;;;;;;23.95;9.45;;;;;;;6.87;66.43;102645.50;5026426;28;20461;-78
2022/01/17 02:44:01;;;;;;;18.00;9.38;;;;;;;6.75;67.34;102649.53;5025235;28;20509;-78
2022/01/17 02:46:27;;;;;;;19.85;8.85;;;;;;;6.77;67.61;102645.28;5028726;28;20065;-79
2022/01/17 02:48:55;;;;;;;23.67;9.02;;;;;;;6.62;68.87;102652.63;5024711;28;20072;-78
2022/01/17 02:51:21;;;;;;;21.63;8.65;;;;;;;6.64;67.54;102648.38;5027167;28;20388;-78
2022/01/17 02:53:47;;;;;;;22.55;8.88;;;;;;;6.56;66.99;102646.50;5024980;28;20044;-78
2022/01/17 02:56:12;;;;;;;19.83;9.07;;;;;;;6.67;67.23;102654.50;5029014;28;20022;-78
2022/01/17 02:58:40;;;;;;;19.33;8.27;;;;;;;6.40;68.62;102652.06;5023939;28;20494;-78
2022/01/17 03:01:12;;;;;;;17.42;8.27;;;;;;;6.75;67.85;102650.38;5029604;28;20056;-78
2022/01/17 03:03:40;;;;;;;16.50;8.52;;;;;;;6.68;68.18;102650.22;5026207;28;20057;-78
2022/01/17 03:06:06;;;;;;;19.23;9.23;;;;;;;6.68;66.95;102655.38;5026475;28;20041;-78
2022/01/17 03:08:33;;;;;;;20.00;8.07;;;;;;;6.69;67.41;102647.69;5026224;28;20087;-78
2022/01/17 03:11:01;;;;;;;19.40;8.40;;;;;;;6.70;67.32;102657.16;5029234;28;20385;-78
2022/01/17 03:13:34;;;;;;;19.30;7.88;;;;;;;6.53;67.68;102663.59;5027006;28;20033;-78
2022/01/17 03:16:04;;;;;;;18.95;7.80;;;;;;;6.60;66.81;102660.38;5026939;28;20048;-78
2022/01/17 03:18:33;;;;;;;16.98;8.50;;;;;;;6.84;66.80;102642.00;5024823;28;20072;-78
2022/01/17 03:21:00;;;;;;;17.02;8.80;;;;;;;6.88;66.40;102631.78;5027635;28;20410;-78
2022/01/17 03:23:26;;;;;;;17.50;7.70;;;;;;;6.51;67.24;102627.41;5023178;28;20033;-78
2022/01/17 03:25:52;;;;;;;16.23;7.85;;;;;;;6.73;67.63;102622.78;5026355;28;20026;-78
2022/01/17 03:28:17;;;;;;;21.25;8.63;;;;;;;6.93;65.69;102624.16;5027734;28;20104;-78
2022/01/17 03:30:43;;;;;;;19.70;8.82;;;;;;;6.89;66.24;102630.06;5026791;28;20464;-78
2022/01/17 03:33:12;;;;;;;18.25;8.75;;;;;;;6.67;66.67;102644.16;5024142;28;20025;-78
2022/01/17 03:35:39;;;;;;;19.48;8.73;;;;;;;6.82;66.27;102647.13;5026196;28;20033;-78
2022/01/17 03:38:07;;;;;;;21.88;9.02;;;;;;;6.89;65.94;102649.03;5027814;28;20091;-78
2022/01/17 03:40:33;;;;;;;25.40;9.25;;;;;;;6.83;65.89;102660.91;5025644;28;20033;-78
2022/01/17 03:42:59;;;;;;;18.67;8.73;;;;;;;6.69;66.80;102652.84;5024043;28;20095;-78
2022/01/17 03:45:24;;;;;;;19.13;9.95;;;;;;;6.90;66.69;102635.25;5025433;28;20045;-79
2022/01/17 03:47:50;;;;;;;19.63;8.32;;;;;;;6.95;65.30;102641.44;5027588;28;21050;-78
2022/01/17 03:50:18;;;;;;;20.00;9.55;;;;;;;6.92;65.95;102636.19;5027224;28;20028;-78
2022/01/17 03:52:44;;;;;;;23.05;8.43;;;;;;;6.83;66.83;102635.97;5025539;28;20038;-78
2022/01/17 03:55:13;;;;;;;21.58;8.73;;;;;;;6.75;66.87;102626.28;5025980;28;20040;-78
2022/01/17 03:57:38;;;;;;;16.13;8.65;;;;;;;6.94;65.74;102625.88;5023935;28;20061;-78
2022/01/17 04:00:07;;;;;;;22.77;9.15;;;;;;;6.82;66.91;102631.63;5029269;28;20537;-78
2022/01/17 04:02:33;;;;;;;21.23;8.48;;;;;;;6.60;66.67;102650.03;5026564;28;20033;-78
2022/01/17 04:04:58;;;;;;;20.45;10.00;;;;;;;6.82;66.72;102662.63;5028931;28;20034;-78
2022/01/17 04:07:24;;;;;;;23.92;10.68;;;;;;;6.76;65.88;102677.97;5025291;28;20437;-78
2022/01/17 04:09:49;;;;;;;20.02;8.77;;;;;;;6.82;66.02;102667.78;5030164;28;20039;-78
2022/01/17 04:12:15;;;;;;;20.30;9.05;;;;;;;6.77;65.92;102674.56;5023403;28;20036;-78
2022/01/17 04:14:40;;;;;;;20.08;9.32;;;;;;;6.87;66.34;102668.75;5028205;28;20079;-78
2022/01/17 04:17:06;;;;;;;19.30;8.60;;;;;;;6.82;66.53;102672.09;5025551;28;20044;-78
2022/01/17 04:19:32;;;;;;;19.45;8.95;;;;;;;6.84;65.55;102683.34;5028028;28;20495;-79
2022/01/17 04:21:58;;;;;;;18.92;9.75;;;;;;;6.83;65.88;102685.06;5021914;28;20048;-78
2022/01/17 04:24:24;;;;;;;23.95;10.10;;;;;;;7.03;65.73;102694.16;5025632;28;20041;-78
2022/01/17 04:26:49;;;;;;;18.45;9.27;;;;;;;6.82;66.12;102701.38;5025323;28;20049;-79
2022/01/17 04:29:15;;;;;;;25.20;9.50;;;;;;;6.84;65.36;102698.84;5030814;28;20100;-79
2022/01/17 04:31:40;;;;;;;25.88;9.38;;;;;;;6.81;66.76;102697.03;5023610;28;20096;-78
2022/01/17 04:34:06;;;;;;;18.35;8.98;;;;;;;6.85;65.94;102688.53;5027005;28;20033;-78
2022/01/17 04:36:32;;;;;;;19.58;8.13;;;;;;;6.99;65.35;102688.84;5027081;28;20137;-78
2022/01/17 04:38:57;;;;;;;21.48;9.52;;;;;;;6.91;65.62;102685.22;5053350;28;20034;-78
2022/01/17 04:41:34;;;;;;;22.73;9.35;;;;;;;6.88;65.38;102686.03;5058829;28;20047;-78
2022/01/17 04:45:07;;;;;;;25.00;9.35;;;;;;;6.91;65.38;102682.63;5025090;28;20061;-78
2022/01/17 04:46:45;;;;;;;21.08;9.13;;;;;;;6.77;66.03;102681.44;5026424;28;20040;-78
2022/01/17 04:49:11;;;;;;;23.65;9.60;;;;;;;6.79;66.18;102680.63;5025232;28;20037;-78
2022/01/17 04:51:37;;;;;;;24.48;9.40;;;;;;;6.83;66.06;102687.63;5025820;28;20156;-78
2022/01/17 04:54:53;;;;;;;23.52;9.77;;;;;;;6.83;66.05;102690.22;5025720;28;20041;-78
2022/01/17 04:56:49;;;;;;;21.00;8.90;;;;;;;6.28;66.86;102698.19;5017375;28;20040;-79
2022/01/17 04:59:14;;;;;;;26.13;9.98;;;;;;;6.69;66.05;102708.78;5026072;28;20387;-78
2022/01/17 05:01:39;;;;;;;22.10;9.48;;;;;;;6.78;65.46;102698.69;5009605;28;20100;-78
2022/01/17 05:04:05;;;;;;;21.92;9.77;;;;;;;6.69;66.65;102701.91;5029458;28;20116;-78
2022/01/17 05:06:30;;;;;;;24.20;9.68;;;;;;;6.59;66.49;102699.91;5029163;28;20037;-78
2022/01/17 05:08:56;;;;;;;23.77;10.45;;;;;;;6.88;65.55;102698.06;5033984;28;20041;-78
2022/01/17 05:11:24;;;;;;;23.33;9.20;;;;;;;6.81;65.78;102696.19;5027278;28;20040;-78
2022/01/17 05:13:50;;;;;;;22.63;9.70;;;;;;;6.87;65.72;102692.00;5026727;28;20056;-78
2022/01/17 05:16:17;;;;;;;23.80;9.52;;;;;;;6.88;65.56;102693.78;5026707;28;20049;-78
2022/01/17 05:21:08;;;;;;;22.05;9.45;;;;;;;6.83;66.32;102695.38;5024662;28;20038;-78
2022/01/17 05:23:34;;;;;;;19.98;9.55;;;;;;;6.89;66.12;102692.06;5021709;28;20029;-78
2022/01/17 05:26:00;;;;;;;21.00;9.65;;;;;;;6.74;65.71;102689.97;5024693;28;20032;-78
2022/01/17 05:28:25;;;;;;;25.15;9.85;;;;;;;6.75;66.23;102689.13;5027563;28;20097;-78
2022/01/17 05:30:51;;;;;;;19.98;8.68;;;;;;;6.87;65.27;102701.50;5027409;28;20394;-78
2022/01/17 05:33:16;;;;;;;19.88;8.88;;;;;;;6.91;65.89;102699.03;5026406;28;20040;-78
2022/01/17 05:35:42;;;;;;;22.85;10.45;;;;;;;6.95;64.88;102703.44;5023052;28;20045;-78
2022/01/17 05:38:07;;;;;;;23.17;10.05;;;;;;;6.72;65.98;102706.28;5025436;28;20024;-78
2022/01/17 05:40:33;;;;;;;24.52;9.70;;;;;;;6.89;65.65;102711.03;5026562;28;20518;-78
2022/01/17 05:42:58;;;;;;;24.17;10.18;;;;;;;6.95;65.45;102710.31;5024220;28;20560;-78
2022/01/17 05:45:24;;;;;;;20.88;9.38;;;;;;;6.92;65.15;102708.53;5020923;28;20042;-78
2022/01/17 05:47:50;;;;;;;22.27;10.20;;;;;;;6.93;65.76;102712.00;5023743;28;20106;-78
2022/01/17 05:50:16;;;;;;;23.65;10.23;;;;;;;6.97;65.39;102712.09;5024990;28;20068;-78
2022/01/17 05:52:42;;;;;;;25.77;9.13;;;;;;;7.03;65.57;102713.94;5025765;28;20382;-78
2022/01/17 05:55:11;;;;;;;23.08;10.05;;;;;;;6.81;65.74;102712.53;5022894;28;20069;-78
2022/01/17 05:57:37;;;;;;;24.25;9.85;;;;;;;6.92;65.05;102711.13;5023537;28;20045;-78
2022/01/17 06:00:10;;;;;;;23.63;10.32;;;;;;;6.86;64.67;102705.78;5025832;28;20124;-78
2022/01/17 06:02:36;;;;;;;19.27;9.82;;;;;;;6.86;65.37;102713.53;5028383;28;20056;-78
2022/01/17 06:05:01;;;;;;;22.17;9.25;;;;;;;6.79;65.68;102718.50;5027194;28;20041;-78
2022/01/17 06:07:27;;;;;;;18.70;9.50;;;;;;;6.65;66.52;102723.31;5027741;28;20136;-78
2022/01/17 06:09:52;;;;;;;19.75;9.73;;;;;;;6.92;65.43;102728.31;5024888;28;20091;-78
2022/01/17 06:12:17;;;;;;;22.67;10.02;;;;;;;6.64;65.88;102725.84;5028499;28;20080;-78
2022/01/17 06:14:43;;;;;;;25.83;10.77;;;;;;;6.90;65.12;102711.91;5027999;28;20083;-78
2022/01/17 06:17:09;;;;;;;19.75;8.80;;;;;;;6.91;64.64;102703.31;5028043;28;20067;-78
2022/01/17 06:19:34;;;;;;;21.60;9.95;;;;;;;6.84;65.04;102712.59;5028590;28;20061;-78
2022/01/17 06:22:00;;;;;;;18.98;9.43;;;;;;;6.76;65.59;102729.63;5030346;28;20053;-78
2022/01/17 06:24:25;;;;;;;23.83;9.18;;;;;;;6.78;65.25;102717.63;5029553;28;20502;-78
2022/01/17 06:26:51;;;;;;;23.73;9.95;;;;;;;6.82;64.71;102711.72;5028113;28;20098;-78
2022/01/17 06:29:17;;;;;;;22.45;9.43;;;;;;;6.83;65.63;102713.47;5028681;28;20518;-78
2022/01/17 06:31:44;;;;;;;21.52;9.35;;;;;;;6.75;64.61;102716.69;5026381;28;20049;-78
2022/01/17 06:34:11;;;;;;;20.27;9.25;;;;;;;6.79;65.16;102711.63;5025282;28;20120;-78
2022/01/17 06:36:37;;;;;;;18.15;10.23;;;;;;;6.74;64.83;102720.97;5027029;28;20038;-78
2022/01/17 06:39:04;;;;;;;23.23;9.40;;;;;;;6.74;64.38;102725.25;5029991;28;20029;-78
2022/01/17 06:41:30;;;;;;;24.48;9.65;;;;;;;6.77;65.02;102718.47;5024412;28;20060;-78
2022/01/17 06:43:56;;;;;;;20.55;9.07;;;;;;;6.88;65.19;102719.63;5026166;28;20452;-78
2022/01/17 06:46:22;;;;;;;24.05;9.10;;;;;;;6.99;64.09;102717.28;5029516;28;20073;-78
2022/01/17 06:48:47;;;;;;;19.48;9.57;;;;;;;6.66;64.85;102719.03;5028846;28;20116;-79
2022/01/17 06:51:16;;;;;;;21.15;9.70;;;;;;;6.72;64.17;102722.66;5027911;28;20046;-80
2022/01/17 06:53:42;;;;;;;22.63;9.52;;;;;;;6.95;63.95;102716.34;5034438;28;20735;-79
2022/01/17 06:56:09;;;;;;;25.35;9.93;;;;;;;6.87;63.55;102707.50;5027041;28;20041;-79
2022/01/17 06:58:36;;;;;;;19.73;9.50;;;;;;;6.86;63.83;102699.75;5023816;28;20041;-79
2022/01/17 07:01:03;;;;;;;22.33;9.20;;;;;;;6.91;64.23;102711.06;5028510;28;20461;-79
2022/01/17 07:03:29;;;;;;;19.05;8.13;;;;;;;6.83;64.27;102723.78;5024594;28;20411;-78
2022/01/17 07:05:54;;;;;;;21.15;9.02;;;;;;;6.87;63.97;102722.16;5028893;28;20044;-78
2022/01/17 07:08:20;;;;;;;23.33;9.77;;;;;;;6.64;65.55;102733.59;5029747;28;20120;-80
2022/01/17 07:10:45;;;;;;;30.10;10.60;;;;;;;6.86;64.30;102736.78;5029725;28;20059;-79
2022/01/17 07:13:11;;;;;;;30.75;9.27;;;;;;;6.97;63.99;102739.63;5024586;28;20076;-80
2022/01/17 07:15:36;;;;;;;30.77;12.75;;;;;;;6.87;63.89;102766.94;5026314;28;20040;-80
2022/01/17 07:18:02;;;;;;;21.88;9.05;;;;;;;6.86;63.69;102774.66;5022168;28;20533;-79
2022/01/17 07:20:28;;;;;;;25.95;11.18;;;;;;;6.94;64.21;102765.38;5023832;28;20121;-79
2022/01/17 07:22:53;;;;;;;24.27;10.07;;;;;;;6.94;64.44;102750.75;5026720;28;20033;-79
2022/01/17 07:25:19;;;;;;;35.38;12.73;;;;;;;6.94;63.69;102737.84;5039690;28;20030;-79
2022/01/17 07:27:44;;;;;;;25.42;10.75;;;;;;;6.91;64.32;102726.56;5024506;28;20518;-79
2022/01/17 07:30:11;;;;;;;21.52;9.00;;;;;;;6.88;63.66;102722.19;5027458;28;20061;-78
2022/01/17 07:32:37;;;;;;;22.42;9.07;;;;;;;6.93;63.29;102709.41;5024321;28;20081;-79
2022/01/17 07:35:04;;;;;;;19.05;8.35;;;;;;;6.72;64.86;102714.91;5026815;28;20439;-79
2022/01/17 07:37:29;;;;;;;16.92;7.97;;;;;;;6.66;64.26;102717.34;5024789;28;20441;-79
2022/01/17 07:39:55;;;;;;;17.55;8.82;;;;;;;6.84;64.87;102730.69;5026938;28;20046;-79
2022/01/17 07:42:20;;;;;;;20.92;9.85;;;;;;;7.01;63.53;102733.72;5009173;28;20041;-79
2022/01/17 07:44:53;;;;;;;20.30;9.25;;;;;;;6.90;63.35;102732.59;5026218;28;20116;-79
2022/01/17 07:47:25;;;;;;;21.42;9.00;;;;;;;6.90;63.79;102724.84;5025003;28;20040;-79
2022/01/17 07:49:50;;;;;;;24.90;8.90;;;;;;;6.79;63.85;102724.53;5025691;28;20057;-79
2022/01/17 07:52:16;;;;;;;22.63;9.32;;;;;;;6.90;64.51;102728.25;5021562;28;20060;-79
2022/01/17 07:54:44;;;;;;;17.52;7.22;;;;;;;6.97;63.38;102721.53;5020553;28;20410;-79
2022/01/17 07:57:11;;;;;;;20.08;9.15;;;;;;;6.94;63.44;102721.47;5024128;28;20099;-79
2022/01/17 07:59:37;;;;;;;21.73;9.05;;;;;;;6.88;63.66;102729.06;5023084;28;20033;-78
2022/01/17 08:02:03;;;;;;;21.65;8.07;;;;;;;6.96;62.63;102733.59;5027307;28;20029;-79
2022/01/17 08:04:29;;;;;;;17.48;8.23;;;;;;;6.91;64.32;102730.03;5024215;28;20037;-79
2022/01/17 08:06:55;;;;;;;19.90;8.32;;;;;;;6.88;63.15;102735.09;5026652;28;20033;-79
2022/01/17 08:09:26;;;;;;;21.15;8.85;;;;;;;6.97;63.51;102743.09;5023751;28;20091;-79
2022/01/17 08:11:52;;;;;;;19.33;8.50;;;;;;;6.98;63.05;102744.84;5027667;28;20119;-79
2022/01/17 08:14:18;;;;;;;19.77;7.55;;;;;;;6.93;64.09;102749.00;5007506;28;20061;-79
2022/01/17 08:16:44;;;;;;;19.67;8.40;;;;;;;7.12;62.84;102747.75;5026801;28;20077;-79
2022/01/17 08:19:09;;;;;;;20.83;8.82;;;;;;;7.10;62.61;102749.44;5023018;28;20517;-79
2022/01/17 08:21:35;;;;;;;16.95;7.65;;;;;;;7.09;62.47;102750.28;5024955;28;20124;-79
2022/01/17 08:24:00;;;;;;;15.60;7.25;;;;;;;7.18;63.11;102755.66;5023626;28;20048;-79
2022/01/17 08:26:26;;;;;;;18.75;8.60;;;;;;;7.01;63.03;102755.28;5025463;28;20076;-79
2022/01/17 08:28:52;;;;;;;22.83;8.32;;;;;;;7.03;63.62;102753.59;5026296;28;20029;-79
2022/01/17 08:31:19;;;;;;;20.33;7.40;;;;;;;6.98;63.52;102752.59;5025863;28;20069;-79
2022/01/17 08:33:45;;;;;;;19.42;8.38;;;;;;;7.04;62.92;102754.47;5023614;28;20060;-79
2022/01/17 08:36:11;;;;;;;15.88;7.60;;;;;;;7.15;62.18;102755.59;5007112;28;20038;-79
2022/01/17 08:38:38;;;;;;;17.52;7.82;;;;;;;7.02;63.50;102759.56;5043353;28;20045;-79
2022/01/17 08:41:04;;;;;;;17.58;7.68;;;;;;;7.14;62.02;102751.25;5026735;28;20060;-79
2022/01/17 08:43:29;;;;;;;18.52;7.93;;;;;;;6.99;63.35;102754.34;5027524;28;21790;-79
2022/01/17 08:45:56;;;;;;;14.25;6.55;;;;;;;7.20;63.15;102764.31;5028718;28;20505;-79
2022/01/17 08:48:21;;;;;;;21.33;7.22;;;;;;;7.17;62.22;102759.09;5026734;28;20068;-79
2022/01/17 08:50:47;;;;;;;15.80;7.93;;;;;;;7.12;62.34;102764.16;5058856;28;21135;-79
2022/01/17 08:53:14;;;;;;;16.95;7.03;;;;;;;7.11;62.78;102753.75;5022362;28;20120;-79
2022/01/17 08:55:42;;;;;;;14.25;7.10;;;;;;;7.06;63.05;102755.38;5027588;28;20065;-79
2022/01/17 08:58:08;;;;;;;19.80;7.10;;;;;;;6.88;63.23;102758.38;5021760;28;20160;-79
2022/01/17 09:00:34;;;;;;;16.63;7.47;;;;;;;7.09;62.34;102769.25;5025125;28;20045;-79
2022/01/17 09:03:03;;;;;;;16.85;7.30;;;;;;;7.12;62.67;102784.81;5022075;28;20046;-78
2022/01/17 09:05:29;;;;;;;17.27;7.32;;;;;;;7.12;63.53;102796.88;5026497;28;20049;-78
2022/01/17 09:07:55;;;;;;;18.85;7.63;;;;;;;7.08;62.50;102793.31;5007152;28;20041;-78
2022/01/17 09:10:21;;;;;;;20.05;7.28;;;;;;;6.94;63.72;102801.56;5024121;28;21600;-79
2022/01/17 09:12:46;;;;;;;23.65;8.05;;;;;;;7.12;62.33;102805.50;5024429;28;20032;-79
2022/01/17 09:15:13;;;;;;;22.40;8.20;;;;;;;7.22;62.74;102823.84;5025466;28;20085;-79
2022/01/17 09:17:39;;;;;;;16.90;7.13;;;;;;;7.22;62.70;102832.47;5026014;28;20025;-79
2022/01/17 09:20:06;;;;;;;20.63;7.65;;;;;;;6.90;63.13;102844.53;5023572;28;20115;-79
2022/01/17 09:22:32;;;;;;;19.38;7.57;;;;;;;6.99;63.62;102849.06;5025390;28;20061;-79
2022/01/17 09:24:58;;;;;;;22.35;8.45;;;;;;;6.95;63.61;102847.25;5027684;28;20037;-79
2022/01/17 09:27:23;;;;;;;19.67;7.43;;;;;;;6.77;64.18;102837.28;5023646;28;20029;-79
2022/01/17 09:29:49;;;;;;;20.17;8.27;;;;;;;6.95;64.19;102824.00;5040504;28;20084;-79
2022/01/17 09:32:14;;;;;;;22.67;8.57;;;;;;;6.91;64.05;102816.97;5028456;28;20095;-79
2022/01/17 09:34:42;;;;;;;18.13;8.57;;;;;;;7.08;64.76;102828.63;5027260;28;20525;-79
2022/01/17 09:37:09;;;;;;;22.63;9.05;;;;;;;7.15;63.86;102822.78;5027260;28;20136;-79
2022/01/17 09:39:35;;;;;;;22.42;8.65;;;;;;;7.01;64.61;102837.06;5029236;28;20172;-79
2022/01/17 09:42:01;;;;;;;27.30;10.82;;;;;;;7.10;65.28;102837.31;5030516;28;20379;-79
2022/01/17 09:44:27;;;;;;;26.60;9.60;;;;;;;7.07;65.49;102843.28;5025280;28;20022;-78
2022/01/17 09:46:55;;;;;;;23.33;9.85;;;;;;;7.00;64.97;102848.22;5026835;28;20124;-79
2022/01/17 09:49:25;;;;;;;20.48;9.52;;;;;;;7.09;65.10;102853.66;5028216;28;20137;-79
2022/01/17 09:54:24;;;;;;;26.55;10.13;;;;;;;7.14;65.14;102857.22;5027569;28;20132;-79
2022/01/17 09:56:51;;;;;;;21.65;9.30;;;;;;;7.04;65.77;102875.91;5026471;28;20057;-79
2022/01/17 09:59:17;;;;;;;21.77;9.00;;;;;;;6.83;66.48;102858.13;5028518;28;20032;-79
2022/01/17 10:01:43;;;;;;;27.90;10.38;;;;;;;7.02;65.29;102841.38;5026416;28;20025;-79
2022/01/17 10:04:09;;;;;;;22.05;9.75;;;;;;;7.10;66.11;102843.38;5027853;28;20525;-79
2022/01/17 10:06:36;;;;;;;22.83;9.88;;;;;;;6.86;66.10;102819.47;5028692;28;20487;-78
2022/01/17 10:09:13;;;;;;;24.52;10.00;;;;;;;7.14;65.59;102824.50;5030270;28;20025;-79
2022/01/17 10:12:04;;;;;;;26.83;9.93;;;;;;;7.22;66.09;102836.75;5028575;28;20078;-79
2022/01/17 10:14:41;;;;;;;27.10;9.93;;;;;;;7.28;65.70;102837.78;5032532;28;20032;-79
2022/01/17 10:17:10;;;;;;;23.33;9.38;;;;;;;7.14;65.53;102834.84;5027943;28;20560;-79
2022/01/17 10:19:37;;;;;;;22.83;9.40;;;;;;;7.02;65.56;102856.88;5029799;28;20494;-79
2022/01/17 10:22:10;;;;;;;23.73;10.00;;;;;;;7.17;66.30;102862.47;5028485;28;20121;-79
2022/01/17 10:24:55;;;;;;;20.73;10.38;;;;;;;7.07;66.72;102861.38;5027992;28;20073;-79
2022/01/17 10:35:37;;;;;;;27.05;9.93;;;;;;;7.29;68.97;102874.84;5026119;28;20059;-79
2022/01/17 10:38:11;;;;;;;25.90;10.82;;;;;;;7.25;67.33;102870.44;5025730;28;20072;-79
2022/01/17 10:40:49;;;;;;;28.63;10.90;;;;;;;7.30;67.96;102874.88;5030584;28;20040;-79
2022/01/17 10:43:38;;;;;;;24.30;9.30;;;;;;;6.99;68.23;102870.59;5025482;28;20076;-79
2022/01/17 10:46:12;;;;;;;30.52;11.05;;;;;;;6.93;68.64;102870.44;5030118;28;20639;-79
2022/01/17 10:48:44;;;;;;;25.35;10.68;;;;;;;7.19;68.12;102862.53;5025504;28;20064;-79
2022/01/17 10:51:11;;;;;;;22.83;10.82;;;;;;;7.34;67.74;102857.75;5042449;28;20037;-79
2022/01/17 10:53:39;;;;;;;21.92;10.10;;;;;;;7.35;66.90;102860.38;5027277;28;20080;-79
2022/01/17 10:56:08;;;;;;;26.10;11.07;;;;;;;7.28;67.00;102857.59;5024865;28;20123;-79
2022/01/17 10:58:37;;;;;;;24.92;10.85;;;;;;;7.22;67.62;102854.84;5022257;28;20323;-79
2022/01/17 11:01:15;;;;;;;26.05;10.85;;;;;;;7.35;66.80;102855.19;5025990;28;20047;-78
2022/01/17 11:03:42;;;;;;;32.63;12.18;;;;;;;7.46;66.32;102855.47;5022364;28;20064;-78
2022/01/17 11:06:14;;;;;;;23.25;10.80;;;;;;;7.26;67.64;102867.00;5058229;28;20506;-78
2022/01/17 11:08:41;;;;;;;28.70;10.15;;;;;;;7.48;66.41;102861.56;5024360;28;20060;-78
2022/01/17 11:11:08;;;;;;;30.20;11.38;;;;;;;7.28;67.22;102873.09;5024055;28;20032;-79
2022/01/17 11:13:38;;;;;;;25.40;10.75;;;;;;;7.31;67.28;102881.81;5025776;28;20155;-79
2022/01/17 11:16:10;;;;;;;22.55;10.32;;;;;;;7.12;66.95;102887.31;5025474;28;20037;-79
2022/01/17 11:18:36;;;;;;;22.52;10.32;;;;;;;7.34;67.17;102871.56;5027505;28;20044;-79
2022/01/17 11:21:13;;;;;;;23.90;11.05;;;;;;;7.30;66.83;102866.25;5058854;28;20057;-79
2022/01/17 11:23:43;;;;;;;25.73;10.13;;;;;;;7.26;67.08;102862.72;5024277;28;20391;-79
2022/01/17 11:26:09;;;;;;;22.08;10.57;;;;;;;7.28;66.72;102858.47;5028129;28;20040;-79
2022/01/17 11:28:36;;;;;;;24.77;9.85;;;;;;;7.45;65.98;102862.34;5038342;28;20482;-79
2022/01/17 11:31:07;;;;;;;23.40;10.30;;;;;;;7.43;66.50;102864.03;5027709;28;20046;-78
2022/01/17 11:33:35;;;;;;;22.10;10.07;;;;;;;7.25;67.18;102863.56;5026145;28;20064;-78
2022/01/17 11:36:00;;;;;;;20.90;9.95;;;;;;;7.34;66.87;102862.91;5030297;28;20567;-79
2022/01/17 11:38:29;;;;;;;27.85;10.05;;;;;;;7.23;67.83;102861.78;5027101;28;20033;-78
2022/01/17 11:40:56;;;;;;;21.33;9.80;;;;;;;7.12;68.10;102857.19;5028828;28;20045;-78
2022/01/17 11:43:34;;;;;;;21.75;9.57;;;;;;;7.03;68.07;102859.53;5024930;28;20033;-78
2022/01/17 11:46:16;;;;;;;20.17;9.05;;;;;;;7.46;67.69;102861.53;5024911;28;20637;-78